createdAt,value
2018-05-28T00:00:26.231Z,0.00
2018-05-28T00:01:01.754Z,0.00
2018-05-28T00:01:36.961Z,0.00
2018-05-28T00:02:12.339Z,0.00
2018-05-28T00:02:47.449Z,0.00
2018-05-28T00:03:22.790Z,0.00
2018-05-28T00:03:57.930Z,0.00
2018-05-28T00:04:33.457Z,0.00
2018-05-28T00:05:08.965Z,0.00
2018-05-28T00:05:44.898Z,0.00
2018-05-28T00:06:22.233Z,0.00
2018-05-28T00:06:57.473Z,0.00
2018-05-28T00:07:32.997Z,0.00
2018-05-28T00:08:08.276Z,0.00
2018-05-28T00:08:43.892Z,0.00
2018-05-28T00:09:19.323Z,0.00
2018-05-28T00:09:54.524Z,0.00
2018-05-28T00:10:29.758Z,0.00
2018-05-28T00:11:05.596Z,0.00
2018-05-28T00:11:42.496Z,0.00
2018-05-28T00:12:18.138Z,0.00
2018-05-28T00:12:53.595Z,0.00
2018-05-28T00:13:28.687Z,0.00
2018-05-28T00:14:04.028Z,0.00
2018-05-28T00:14:40.470Z,0.00
2018-05-28T00:15:15.837Z,0.00
2018-05-28T00:15:51.020Z,0.00
2018-05-28T00:16:26.581Z,0.00
2018-05-28T00:17:03.701Z,0.00
2018-05-28T00:17:39.570Z,0.00
2018-05-28T00:18:15.384Z,0.00
2018-05-28T00:18:50.981Z,0.00
2018-05-28T00:19:26.418Z,0.00
2018-05-28T00:20:02.058Z,0.00
2018-05-28T00:20:38.161Z,0.00
2018-05-28T00:21:13.621Z,0.00
2018-05-28T00:21:49.221Z,0.00
2018-05-28T00:22:24.817Z,0.00
2018-05-28T00:23:00.219Z,0.00
2018-05-28T00:23:35.582Z,0.00
2018-05-28T00:24:10.874Z,0.00
2018-05-28T00:24:48.916Z,0.00
2018-05-28T00:25:24.333Z,0.00
2018-05-28T00:25:59.782Z,0.00
2018-05-28T00:26:35.008Z,0.00
2018-05-28T00:27:10.296Z,0.00
2018-05-28T00:27:45.627Z,0.00
2018-05-28T00:28:21.143Z,0.00
2018-05-28T00:28:56.573Z,0.00
2018-05-28T00:29:32.204Z,0.00
2018-05-28T00:30:07.650Z,0.00
2018-05-28T00:30:45.311Z,0.00
2018-05-28T00:31:20.619Z,0.00
2018-05-28T00:31:55.965Z,0.00
2018-05-28T00:32:31.261Z,0.00
2018-05-28T00:33:06.826Z,0.00
2018-05-28T00:33:42.332Z,0.00
2018-05-28T00:34:17.763Z,0.00
2018-05-28T00:34:53.275Z,0.00
2018-05-28T00:35:28.633Z,0.00
2018-05-28T00:36:05.853Z,0.00
2018-05-28T00:36:41.205Z,0.00
2018-05-28T00:37:16.702Z,0.00
2018-05-28T00:37:52.069Z,0.00
2018-05-28T00:38:27.691Z,0.00
2018-05-28T00:39:03.048Z,0.00
2018-05-28T00:39:38.617Z,0.00
2018-05-28T00:40:13.847Z,0.00
2018-05-28T00:40:49.354Z,0.00
2018-05-28T00:41:25.991Z,0.00
2018-05-28T00:42:01.844Z,0.00
2018-05-28T00:42:37.386Z,0.00
2018-05-28T00:43:13.016Z,0.00
2018-05-28T00:43:49.439Z,0.00
2018-05-28T00:44:24.652Z,0.00
2018-05-28T00:45:00.098Z,0.00
2018-05-28T00:45:36.891Z,0.00
2018-05-28T00:46:12.643Z,0.00
2018-05-28T00:46:49.568Z,0.00
2018-05-28T00:47:25.111Z,0.00
2018-05-28T00:48:00.511Z,0.00
2018-05-28T00:48:36.188Z,0.00
2018-05-28T00:49:11.597Z,0.00
2018-05-28T00:49:48.726Z,0.00
2018-05-28T00:50:24.141Z,0.00
2018-05-28T00:50:59.682Z,0.00
2018-05-28T00:51:35.113Z,0.00
2018-05-28T00:52:10.836Z,0.00
2018-05-28T00:52:46.256Z,0.00
2018-05-28T00:53:21.916Z,0.00
2018-05-28T00:53:57.140Z,0.00
2018-05-28T00:54:32.574Z,0.00
2018-05-28T00:55:11.281Z,0.00
2018-05-28T00:55:46.850Z,0.00
2018-05-28T00:56:22.253Z,0.00
2018-05-28T00:56:57.572Z,0.00
2018-05-28T00:57:32.714Z,0.00
2018-05-28T00:58:08.039Z,0.00
2018-05-28T00:58:43.305Z,0.00
2018-05-28T00:59:19.045Z,0.00
2018-05-28T00:59:54.360Z,0.00
2018-05-28T01:00:29.681Z,0.00
2018-05-28T01:01:05.939Z,0.00
2018-05-28T01:01:41.365Z,0.00
2018-05-28T01:02:16.875Z,0.00
2018-05-28T01:02:52.707Z,0.00
2018-05-28T01:03:28.134Z,0.00
2018-05-28T01:04:03.484Z,0.00
2018-05-28T01:04:39.410Z,0.00
2018-05-28T01:05:15.069Z,0.00
2018-05-28T01:05:51.325Z,0.00
2018-05-28T01:06:27.009Z,0.00
2018-05-28T01:07:03.443Z,0.00
2018-05-28T01:07:38.861Z,0.00
2018-05-28T01:08:14.569Z,0.00
2018-05-28T01:08:50.148Z,0.00
2018-05-28T01:09:25.526Z,0.00
2018-05-28T01:10:00.925Z,0.00
2018-05-28T01:10:38.433Z,0.00
2018-05-28T01:11:14.025Z,0.00
2018-05-28T01:11:50.804Z,0.00
2018-05-28T01:12:25.947Z,0.00
2018-05-28T01:13:01.339Z,0.00
2018-05-28T01:13:36.702Z,0.00
2018-05-28T01:14:11.627Z,0.00
2018-05-28T01:14:47.459Z,0.00
2018-05-28T01:15:22.997Z,0.00
2018-05-28T01:15:58.217Z,0.00
2018-05-28T01:16:33.722Z,0.00
2018-05-28T01:17:08.892Z,0.00
2018-05-28T01:17:44.610Z,0.00
2018-05-28T01:18:20.440Z,0.00
2018-05-28T01:18:56.085Z,0.00
2018-05-28T01:19:31.415Z,0.00
2018-05-28T01:20:06.837Z,0.00
2018-05-28T01:20:42.283Z,0.00
2018-05-28T01:21:19.323Z,0.00
2018-05-28T01:21:54.857Z,0.00
2018-05-28T01:22:30.216Z,0.00
2018-05-28T01:23:05.859Z,0.00
2018-05-28T01:23:41.304Z,0.00
2018-05-28T01:24:16.525Z,0.00
2018-05-28T01:24:52.058Z,0.00
2018-05-28T01:25:27.712Z,0.00
2018-05-28T01:26:04.168Z,0.00
2018-05-28T01:26:39.803Z,0.00
2018-05-28T01:27:15.439Z,0.00
2018-05-28T01:27:51.294Z,0.00
2018-05-28T01:28:26.516Z,0.00
2018-05-28T01:29:01.896Z,0.00
2018-05-28T01:29:38.320Z,0.00
2018-05-28T01:30:13.981Z,0.00
2018-05-28T01:30:53.436Z,0.00
2018-05-28T01:31:29.947Z,0.00
2018-05-28T01:32:06.265Z,0.00
2018-05-28T01:32:42.442Z,0.00
2018-05-28T01:33:17.735Z,0.00
2018-05-28T01:33:53.169Z,0.00
2018-05-28T01:34:28.580Z,0.00
2018-05-28T01:35:04.116Z,0.00
2018-05-28T01:35:41.354Z,0.00
2018-05-28T01:36:16.680Z,0.00
2018-05-28T01:36:52.888Z,0.00
2018-05-28T01:37:28.331Z,0.00
2018-05-28T01:38:03.739Z,0.00
2018-05-28T01:38:39.208Z,0.00
2018-05-28T01:39:14.365Z,0.00
2018-05-28T01:39:50.490Z,0.00
2018-05-28T01:40:25.779Z,0.00
2018-05-28T01:41:01.129Z,0.00
2018-05-28T01:41:36.470Z,0.00
2018-05-28T01:42:11.906Z,0.00
2018-05-28T01:42:47.433Z,0.00
2018-05-28T01:43:22.875Z,0.00
2018-05-28T01:43:58.727Z,0.00
2018-05-28T01:44:33.937Z,0.00
2018-05-28T01:45:09.193Z,0.00
2018-05-28T01:45:44.514Z,0.00
2018-05-28T01:46:21.718Z,0.00
2018-05-28T01:46:57.147Z,0.00
2018-05-28T01:47:32.345Z,0.00
2018-05-28T01:48:08.077Z,0.00
2018-05-28T01:48:43.705Z,0.00
2018-05-28T01:49:19.376Z,0.00
2018-05-28T01:49:54.936Z,0.00
2018-05-28T01:50:30.700Z,0.00
2018-05-28T01:51:06.036Z,0.00
2018-05-28T01:51:42.033Z,0.00
2018-05-28T01:52:17.430Z,0.00
2018-05-28T01:52:52.768Z,0.00
2018-05-28T01:53:28.265Z,0.00
2018-05-28T01:54:04.826Z,0.00
2018-05-28T01:54:40.650Z,0.00
2018-05-28T01:55:17.645Z,0.00
2018-05-28T01:55:53.076Z,0.00
2018-05-28T01:56:28.607Z,0.00
2018-05-28T01:57:03.939Z,0.00
2018-05-28T01:57:39.076Z,0.00
2018-05-28T01:58:14.401Z,0.00
2018-05-28T01:58:51.232Z,0.00
2018-05-28T01:59:26.677Z,0.00
2018-05-28T02:00:02.907Z,0.00
2018-05-28T02:00:41.437Z,0.00
2018-05-28T02:01:19.072Z,0.00
2018-05-28T02:01:54.606Z,0.00
2018-05-28T02:02:30.236Z,0.00
2018-05-28T02:03:07.055Z,0.00
2018-05-28T02:03:42.600Z,0.00
2018-05-28T02:04:17.864Z,0.00
2018-05-28T02:04:53.415Z,0.00
2018-05-28T02:05:28.742Z,0.00
2018-05-28T02:06:04.166Z,0.00
2018-05-28T02:06:40.662Z,0.00
2018-05-28T02:07:16.674Z,0.00
2018-05-28T02:07:52.084Z,0.00
2018-05-28T02:08:27.632Z,0.00
2018-05-28T02:09:03.227Z,0.00
2018-05-28T02:09:38.389Z,0.00
2018-05-28T02:10:15.600Z,0.00
2018-05-28T02:10:54.235Z,0.00
2018-05-28T02:11:29.620Z,0.00
2018-05-28T02:12:04.957Z,0.00
2018-05-28T02:12:41.476Z,0.00
2018-05-28T02:13:16.708Z,0.00
2018-05-28T02:13:52.819Z,0.00
2018-05-28T02:14:28.424Z,0.00
2018-05-28T02:15:05.270Z,0.00
2018-05-28T02:15:44.919Z,0.00
2018-05-28T02:16:20.510Z,0.00
2018-05-28T02:16:56.052Z,0.00
2018-05-28T02:17:31.757Z,0.00
2018-05-28T02:18:06.907Z,0.00
2018-05-28T02:18:42.705Z,0.00
2018-05-28T02:19:18.184Z,0.00
2018-05-28T02:19:53.775Z,0.00
2018-05-28T02:20:29.942Z,0.00
2018-05-28T02:21:07.444Z,0.00
2018-05-28T02:21:43.607Z,0.00
2018-05-28T02:22:18.836Z,0.00
2018-05-28T02:22:54.804Z,0.00
2018-05-28T02:23:30.419Z,0.00
2018-05-28T02:24:05.744Z,0.00
2018-05-28T02:24:41.485Z,0.00
2018-05-28T02:25:17.238Z,0.00
2018-05-28T02:25:53.899Z,0.00
2018-05-28T02:26:29.223Z,0.00
2018-05-28T02:27:04.419Z,0.00
2018-05-28T02:27:39.869Z,0.00
2018-05-28T02:28:15.079Z,0.00
2018-05-28T02:28:50.647Z,0.00
2018-05-28T02:29:26.185Z,0.00
2018-05-28T02:30:01.920Z,0.00
2018-05-28T02:30:38.478Z,0.00
2018-05-28T02:31:13.738Z,0.00
2018-05-28T02:31:49.231Z,0.00
2018-05-28T02:32:24.441Z,0.00
2018-05-28T02:32:59.867Z,0.00
2018-05-28T02:33:35.310Z,0.00
2018-05-28T02:34:10.770Z,0.00
2018-05-28T02:34:46.402Z,0.00
2018-05-28T02:35:23.772Z,0.00
2018-05-28T02:35:59.404Z,0.00
2018-05-28T02:36:34.791Z,0.00
2018-05-28T02:37:10.531Z,0.00
2018-05-28T02:37:46.464Z,0.00
2018-05-28T02:38:22.405Z,0.00
2018-05-28T02:38:57.933Z,0.00
2018-05-28T02:39:33.008Z,0.00
2018-05-28T02:40:08.403Z,0.00
2018-05-28T02:40:46.440Z,0.00
2018-05-28T02:41:22.065Z,0.00
2018-05-28T02:41:57.805Z,0.00
2018-05-28T02:42:33.203Z,0.00
2018-05-28T02:43:08.360Z,0.00
2018-05-28T02:43:43.654Z,0.00
2018-05-28T02:44:18.888Z,0.00
2018-05-28T02:44:54.233Z,0.00
2018-05-28T02:45:29.897Z,0.00
2018-05-28T02:46:06.119Z,0.00
2018-05-28T02:46:41.850Z,0.00
2018-05-28T02:47:17.503Z,0.00
2018-05-28T02:47:55.420Z,0.00
2018-05-28T02:48:30.927Z,0.00
2018-05-28T02:49:06.543Z,0.00
2018-05-28T02:49:42.672Z,0.00
2018-05-28T02:50:18.040Z,0.00
2018-05-28T02:50:55.904Z,0.00
2018-05-28T02:51:31.249Z,0.00
2018-05-28T02:52:08.471Z,0.00
2018-05-28T02:52:44.613Z,0.00
2018-05-28T02:53:19.934Z,0.00
2018-05-28T02:53:55.289Z,0.00
2018-05-28T02:54:30.598Z,0.00
2018-05-28T02:55:06.163Z,0.00
2018-05-28T02:55:43.894Z,0.00
2018-05-28T02:56:19.343Z,0.00
2018-05-28T02:56:54.671Z,0.00
2018-05-28T02:57:30.128Z,0.00
2018-05-28T02:58:05.746Z,0.00
2018-05-28T02:58:41.679Z,0.00
2018-05-28T02:59:17.272Z,0.00
2018-05-28T02:59:52.657Z,0.00
2018-05-28T03:00:28.286Z,0.00
2018-05-28T03:01:04.028Z,0.00
2018-05-28T03:01:39.447Z,0.00
2018-05-28T03:02:14.846Z,0.00
2018-05-28T03:02:50.143Z,0.00
2018-05-28T03:03:25.593Z,0.00
2018-05-28T03:04:00.898Z,0.00
2018-05-28T03:04:36.522Z,0.00
2018-05-28T03:05:11.749Z,0.00
2018-05-28T03:05:47.265Z,0.00
2018-05-28T03:06:26.856Z,0.00
2018-05-28T03:07:02.192Z,0.00
2018-05-28T03:07:41.410Z,0.00
2018-05-28T03:08:17.081Z,0.00
2018-05-28T03:08:55.877Z,0.00
2018-05-28T03:09:31.519Z,0.00
2018-05-28T03:10:07.270Z,0.00
2018-05-28T03:10:42.899Z,0.00
2018-05-28T03:11:19.601Z,0.00
2018-05-28T03:11:54.941Z,0.00
2018-05-28T03:12:33.967Z,0.00
2018-05-28T03:13:09.285Z,0.00
2018-05-28T03:13:44.606Z,0.00
2018-05-28T03:14:19.644Z,0.00
2018-05-28T03:14:55.270Z,0.00
2018-05-28T03:15:30.523Z,0.00
2018-05-28T03:16:06.219Z,0.00
2018-05-28T03:16:41.572Z,0.00
2018-05-28T03:17:16.895Z,0.00
2018-05-28T03:17:52.436Z,0.00
2018-05-28T03:18:27.493Z,0.00
2018-05-28T03:19:02.912Z,0.00
2018-05-28T03:19:38.121Z,0.00
2018-05-28T03:20:13.813Z,0.00
2018-05-28T03:20:52.124Z,0.00
2018-05-28T03:21:27.579Z,0.00
2018-05-28T03:22:02.908Z,0.00
2018-05-28T03:22:38.375Z,0.00
2018-05-28T03:23:13.482Z,0.00
2018-05-28T03:23:48.637Z,0.00
2018-05-28T03:24:23.863Z,0.00
2018-05-28T03:24:59.417Z,0.00
2018-05-28T03:25:34.824Z,0.00
2018-05-28T03:26:10.487Z,0.00
2018-05-28T03:26:47.285Z,0.00
2018-05-28T03:27:22.621Z,0.00
2018-05-28T03:27:58.642Z,0.00
2018-05-28T03:28:34.797Z,0.00
2018-05-28T03:29:10.521Z,0.00
2018-05-28T03:29:45.761Z,0.00
2018-05-28T03:30:21.209Z,0.00
2018-05-28T03:31:02.439Z,0.00
2018-05-28T03:31:37.842Z,0.00
2018-05-28T03:32:13.208Z,0.00
2018-05-28T03:32:48.514Z,0.00
2018-05-28T03:33:24.063Z,0.00
2018-05-28T03:33:59.450Z,0.00
2018-05-28T03:34:34.681Z,0.00
2018-05-28T03:35:10.161Z,0.00
2018-05-28T03:35:48.804Z,0.00
2018-05-28T03:36:25.544Z,0.00
2018-05-28T03:37:01.908Z,0.00
2018-05-28T03:37:37.228Z,0.00
2018-05-28T03:38:12.540Z,0.00
2018-05-28T03:38:48.009Z,0.00
2018-05-28T03:39:23.460Z,0.00
2018-05-28T03:39:58.603Z,0.00
2018-05-28T03:40:33.767Z,0.00
2018-05-28T03:41:09.296Z,0.00
2018-05-28T03:41:45.441Z,0.00
2018-05-28T03:42:20.771Z,5.00
2018-05-28T03:42:57.084Z,5.00
2018-05-28T03:43:32.389Z,5.00
2018-05-28T03:44:07.839Z,5.00
2018-05-28T03:44:43.133Z,5.00
2018-05-28T03:45:20.588Z,5.00
2018-05-28T03:45:55.890Z,5.00
2018-05-28T03:46:31.460Z,5.00
2018-05-28T03:47:07.282Z,5.00
2018-05-28T03:47:43.017Z,5.00
2018-05-28T03:48:18.216Z,5.00
2018-05-28T03:48:55.447Z,5.00
2018-05-28T03:49:30.860Z,5.00
2018-05-28T03:50:06.090Z,5.00
2018-05-28T03:50:43.026Z,5.00
2018-05-28T03:51:18.167Z,5.00
2018-05-28T03:51:57.303Z,5.00
2018-05-28T03:52:32.444Z,5.00
2018-05-28T03:53:07.891Z,5.00
2018-05-28T03:53:43.144Z,5.00
2018-05-28T03:54:18.641Z,5.00
2018-05-28T03:54:54.019Z,5.00
2018-05-28T03:55:29.378Z,5.00
2018-05-28T03:56:04.809Z,5.00
2018-05-28T03:56:39.813Z,5.00
2018-05-28T03:57:14.955Z,5.00
2018-05-28T03:57:50.351Z,5.00
2018-05-28T03:58:26.062Z,5.00
2018-05-28T03:59:01.301Z,5.00
2018-05-28T03:59:36.730Z,5.00
2018-05-28T04:00:12.120Z,11.00
2018-05-28T04:00:53.171Z,11.00
2018-05-28T04:01:28.492Z,11.00
2018-05-28T04:02:05.098Z,11.00
2018-05-28T04:02:41.027Z,11.00
2018-05-28T04:03:16.475Z,11.00
2018-05-28T04:03:51.813Z,11.00
2018-05-28T04:04:27.060Z,11.00
2018-05-28T04:05:02.946Z,11.00
2018-05-28T04:05:39.371Z,11.00
2018-05-28T04:06:14.692Z,11.00
2018-05-28T04:06:52.827Z,11.00
2018-05-28T04:07:28.041Z,11.00
2018-05-28T04:08:03.498Z,11.00
2018-05-28T04:08:38.997Z,11.00
2018-05-28T04:09:14.341Z,11.00
2018-05-28T04:09:49.885Z,11.00
2018-05-28T04:10:25.215Z,11.00
2018-05-28T04:11:01.276Z,11.00
2018-05-28T04:11:36.589Z,11.00
2018-05-28T04:12:11.896Z,11.00
2018-05-28T04:12:47.229Z,11.00
2018-05-28T04:13:22.433Z,11.00
2018-05-28T04:13:57.569Z,16.00
2018-05-28T04:14:33.117Z,16.00
2018-05-28T04:15:08.848Z,16.00
2018-05-28T04:15:46.055Z,16.00
2018-05-28T04:16:21.590Z,16.00
2018-05-28T04:16:57.242Z,16.00
2018-05-28T04:17:32.384Z,16.00
2018-05-28T04:18:07.894Z,16.00
2018-05-28T04:18:43.323Z,16.00
2018-05-28T04:19:19.034Z,16.00
2018-05-28T04:19:54.384Z,16.00
2018-05-28T04:20:29.697Z,16.00
2018-05-28T04:21:05.857Z,16.00
2018-05-28T04:21:42.094Z,16.00
2018-05-28T04:22:17.249Z,16.00
2018-05-28T04:22:52.766Z,16.00
2018-05-28T04:23:28.199Z,16.00
2018-05-28T04:24:03.790Z,16.00
2018-05-28T04:24:39.436Z,16.00
2018-05-28T04:25:14.633Z,22.00
2018-05-28T04:25:51.382Z,22.00
2018-05-28T04:26:26.802Z,22.00
2018-05-28T04:27:02.157Z,22.00
2018-05-28T04:27:37.698Z,22.00
2018-05-28T04:28:13.370Z,22.00
2018-05-28T04:28:48.575Z,22.00
2018-05-28T04:29:24.094Z,22.00
2018-05-28T04:29:59.791Z,22.00
2018-05-28T04:30:35.111Z,22.00
2018-05-28T04:31:10.660Z,22.00
2018-05-28T04:31:45.989Z,22.00
2018-05-28T04:32:21.589Z,22.00
2018-05-28T04:32:56.827Z,22.00
2018-05-28T04:33:32.027Z,22.00
2018-05-28T04:34:07.264Z,22.00
2018-05-28T04:34:44.304Z,22.00
2018-05-28T04:35:19.750Z,22.00
2018-05-28T04:35:55.595Z,22.00
2018-05-28T04:36:31.469Z,22.00
2018-05-28T04:37:06.967Z,22.00
2018-05-28T04:37:42.796Z,22.00
2018-05-28T04:38:18.299Z,22.00
2018-05-28T04:38:54.661Z,22.00
2018-05-28T04:39:30.186Z,22.00
2018-05-28T04:40:05.745Z,22.00
2018-05-28T04:40:41.460Z,22.00
2018-05-28T04:41:16.723Z,22.00
2018-05-28T04:41:52.331Z,22.00
2018-05-28T04:42:27.751Z,22.00
2018-05-28T04:43:03.047Z,22.00
2018-05-28T04:43:38.360Z,22.00
2018-05-28T04:44:13.673Z,22.00
2018-05-28T04:44:49.292Z,22.00
2018-05-28T04:45:24.700Z,28.00
2018-05-28T04:46:00.156Z,28.00
2018-05-28T04:46:35.810Z,28.00
2018-05-28T04:47:10.945Z,28.00
2018-05-28T04:47:46.238Z,28.00
2018-05-28T04:48:21.680Z,28.00
2018-05-28T04:48:57.193Z,28.00
2018-05-28T04:49:32.768Z,28.00
2018-05-28T04:50:07.829Z,28.00
2018-05-28T04:50:43.065Z,28.00
2018-05-28T04:51:21.429Z,33.00
2018-05-28T04:51:58.645Z,33.00
2018-05-28T04:52:33.881Z,33.00
2018-05-28T04:53:09.728Z,33.00
2018-05-28T04:53:45.084Z,33.00
2018-05-28T04:54:20.299Z,33.00
2018-05-28T04:54:55.494Z,33.00
2018-05-28T04:55:31.220Z,33.00
2018-05-28T04:56:07.366Z,33.00
2018-05-28T04:56:43.214Z,33.00
2018-05-28T04:57:18.648Z,33.00
2018-05-28T04:57:53.977Z,33.00
2018-05-28T04:58:29.242Z,33.00
2018-05-28T04:59:04.544Z,39.00
2018-05-28T04:59:40.263Z,39.00
2018-05-28T05:00:15.602Z,39.00
2018-05-28T05:00:54.454Z,39.00
2018-05-28T05:01:30.643Z,39.00
2018-05-28T05:02:05.980Z,39.00
2018-05-28T05:02:41.513Z,39.00
2018-05-28T05:03:16.788Z,39.00
2018-05-28T05:03:52.676Z,39.00
2018-05-28T05:04:28.153Z,39.00
2018-05-28T05:05:04.907Z,39.00
2018-05-28T05:05:42.003Z,45.00
2018-05-28T05:06:18.064Z,39.00
2018-05-28T05:06:53.357Z,39.00
2018-05-28T05:07:28.485Z,39.00
2018-05-28T05:08:03.909Z,39.00
2018-05-28T05:08:40.582Z,39.00
2018-05-28T05:09:15.879Z,39.00
2018-05-28T05:09:51.120Z,39.00
2018-05-28T05:10:26.471Z,39.00
2018-05-28T05:11:01.708Z,39.00
2018-05-28T05:11:37.425Z,39.00
2018-05-28T05:12:12.568Z,39.00
2018-05-28T05:12:48.203Z,39.00
2018-05-28T05:13:26.648Z,39.00
2018-05-28T05:14:01.969Z,39.00
2018-05-28T05:14:37.829Z,39.00
2018-05-28T05:15:12.962Z,39.00
2018-05-28T05:15:51.628Z,39.00
2018-05-28T05:16:26.887Z,39.00
2018-05-28T05:17:08.099Z,39.00
2018-05-28T05:17:43.435Z,39.00
2018-05-28T05:18:18.825Z,39.00
2018-05-28T05:18:57.368Z,33.00
2018-05-28T05:19:33.195Z,39.00
2018-05-28T05:20:08.517Z,39.00
2018-05-28T05:22:48.267Z,39.00
2018-05-28T05:23:26.772Z,39.00
2018-05-28T05:24:02.093Z,39.00
2018-05-28T05:24:37.706Z,39.00
2018-05-28T05:25:13.207Z,39.00
2018-05-28T05:25:50.002Z,39.00
2018-05-28T05:26:28.447Z,39.00
2018-05-28T05:27:04.339Z,39.00
2018-05-28T05:27:39.661Z,33.00
2018-05-28T05:28:15.352Z,33.00
2018-05-28T05:28:53.266Z,33.00
2018-05-28T05:29:28.346Z,33.00
2018-05-28T05:30:03.809Z,33.00
2018-05-28T05:30:39.492Z,39.00
2018-05-28T05:31:14.842Z,39.00
2018-05-28T05:31:50.242Z,39.00
2018-05-28T05:32:25.473Z,39.00
2018-05-28T05:33:03.877Z,39.00
2018-05-28T05:33:40.219Z,45.00
2018-05-28T05:34:18.999Z,45.00
2018-05-28T05:34:57.198Z,45.00
2018-05-28T05:35:32.528Z,45.00
2018-05-28T05:36:08.027Z,45.00
2018-05-28T05:36:50.026Z,39.00
2018-05-28T05:37:25.421Z,45.00
2018-05-28T05:38:01.182Z,45.00
2018-05-28T05:38:36.633Z,45.00
2018-05-28T05:39:14.111Z,45.00
2018-05-28T05:39:49.551Z,45.00
2018-05-28T05:40:24.929Z,45.00
2018-05-28T05:41:02.058Z,45.00
2018-05-28T05:41:37.584Z,45.00
2018-05-28T05:42:12.631Z,39.00
2018-05-28T05:42:52.104Z,39.00
2018-05-28T05:43:27.623Z,39.00
2018-05-28T05:44:05.509Z,39.00
2018-05-28T05:44:40.855Z,45.00
2018-05-28T05:45:16.236Z,45.00
2018-05-28T05:45:55.459Z,45.00
2018-05-28T05:46:30.680Z,45.00
2018-05-28T05:47:05.799Z,45.00
2018-05-28T05:47:41.086Z,50.00
2018-05-28T05:48:17.133Z,50.00
2018-05-28T05:48:52.612Z,50.00
2018-05-28T05:49:31.175Z,45.00
2018-05-28T05:50:06.655Z,45.00
2018-05-28T05:50:43.079Z,45.00
2018-05-28T05:51:18.880Z,45.00
2018-05-28T05:51:54.423Z,45.00
2018-05-28T05:52:29.831Z,50.00
2018-05-28T05:53:05.357Z,61.00
2018-05-28T05:53:41.085Z,67.00
2018-05-28T05:54:16.625Z,61.00
2018-05-28T05:54:52.323Z,67.00
2018-05-28T05:55:27.821Z,67.00
2018-05-28T05:56:03.034Z,73.00
2018-05-28T05:56:41.679Z,78.00
2018-05-28T05:57:16.995Z,78.00
2018-05-28T05:57:52.213Z,78.00
2018-05-28T05:58:27.926Z,78.00
2018-05-28T05:59:03.461Z,78.00
2018-05-28T05:59:41.961Z,78.00
2018-05-28T06:00:17.224Z,78.00
2018-05-28T06:00:55.769Z,78.00
2018-05-28T06:01:31.372Z,67.00
2018-05-28T06:02:06.992Z,61.00
2018-05-28T06:02:44.898Z,67.00
2018-05-28T06:03:21.583Z,73.00
2018-05-28T06:03:56.837Z,73.00
2018-05-28T06:04:35.344Z,73.00
2018-05-28T06:07:12.323Z,78.00
2018-05-28T06:07:50.676Z,78.00
2018-05-28T06:08:28.285Z,67.00
2018-05-28T06:09:03.689Z,61.00
2018-05-28T06:09:39.710Z,61.00
2018-05-28T06:10:17.436Z,61.00
2018-05-28T06:10:52.670Z,61.00
2018-05-28T06:11:27.957Z,50.00
2018-05-28T06:12:07.488Z,73.00
2018-05-28T06:12:42.585Z,84.00
2018-05-28T06:13:21.057Z,84.00
2018-05-28T06:13:56.520Z,73.00
2018-05-28T06:14:32.197Z,73.00
2018-05-28T06:15:07.454Z,84.00
2018-05-28T06:15:46.433Z,90.00
2018-05-28T06:16:21.579Z,90.00
2018-05-28T06:16:57.882Z,90.00
2018-05-28T06:17:33.133Z,90.00
2018-05-28T06:18:08.210Z,101.00
2018-05-28T06:18:43.720Z,106.00
2018-05-28T06:19:19.498Z,106.00
2018-05-28T06:19:55.433Z,106.00
2018-05-28T06:20:30.733Z,106.00
2018-05-28T06:21:08.363Z,106.00
2018-05-28T06:21:46.850Z,95.00
2018-05-28T06:22:27.782Z,84.00
2018-05-28T06:23:03.078Z,84.00
2018-05-28T06:23:41.517Z,67.00
2018-05-28T06:24:18.705Z,67.00
2018-05-28T06:25:00.356Z,67.00
2018-05-28T06:25:36.963Z,73.00
2018-05-28T06:26:16.403Z,84.00
2018-05-28T06:26:51.859Z,90.00
2018-05-28T06:27:28.022Z,106.00
2018-05-28T06:28:12.417Z,112.00
2018-05-28T06:31:26.876Z,101.00
2018-05-28T06:32:03.773Z,118.00
2018-05-28T06:32:39.087Z,118.00
2018-05-28T06:33:14.471Z,106.00
2018-05-28T06:33:49.692Z,112.00
2018-05-28T06:34:24.949Z,101.00
2018-05-28T06:35:03.934Z,90.00
2018-05-28T06:35:39.365Z,84.00
2018-05-28T06:36:14.656Z,73.00
2018-05-28T06:36:52.840Z,78.00
2018-05-28T06:37:28.784Z,101.00
2018-05-28T06:38:04.178Z,95.00
2018-05-28T06:41:19.874Z,95.00
2018-05-28T06:41:55.297Z,90.00
2018-05-28T06:42:30.633Z,78.00
2018-05-28T06:43:10.024Z,78.00
2018-05-28T06:43:51.938Z,78.00
2018-05-28T06:44:34.548Z,78.00
2018-05-28T06:45:12.575Z,90.00
2018-05-28T06:45:51.195Z,95.00
2018-05-28T06:46:29.530Z,84.00
2018-05-28T06:47:04.920Z,84.00
2018-05-28T06:47:43.382Z,101.00
2018-05-28T06:48:18.992Z,101.00
2018-05-28T06:48:54.909Z,101.00
2018-05-28T06:49:30.311Z,95.00
2018-05-28T06:50:05.857Z,90.00
2018-05-28T06:50:41.748Z,95.00
2018-05-28T06:51:17.353Z,84.00
2018-05-28T06:51:52.735Z,78.00
2018-05-28T06:52:27.969Z,106.00
2018-05-28T06:53:03.142Z,129.00
2018-05-28T06:53:38.566Z,151.00
2018-05-28T06:54:14.143Z,151.00
2018-05-28T06:54:49.659Z,151.00
2018-05-28T06:55:24.937Z,151.00
2018-05-28T06:56:00.285Z,151.00
2018-05-28T06:56:35.567Z,151.00
2018-05-28T06:57:12.605Z,157.00
2018-05-28T06:57:48.455Z,151.00
2018-05-28T06:58:24.088Z,151.00
2018-05-28T06:59:02.824Z,157.00
2018-05-28T06:59:41.468Z,157.00
2018-05-28T07:00:16.777Z,157.00
2018-05-28T07:00:54.094Z,157.00
2018-05-28T07:04:08.567Z,163.00
2018-05-28T07:04:44.482Z,163.00
2018-05-28T07:05:19.493Z,157.00
2018-05-28T07:05:55.036Z,157.00
2018-05-28T07:06:30.543Z,157.00
2018-05-28T07:07:06.248Z,157.00
2018-05-28T07:07:41.473Z,157.00
2018-05-28T07:08:16.998Z,157.00
2018-05-28T07:08:52.483Z,157.00
2018-05-28T07:09:27.616Z,157.00
2018-05-28T07:10:02.984Z,163.00
2018-05-28T07:10:40.700Z,163.00
2018-05-28T07:11:17.785Z,163.00
2018-05-28T07:11:53.132Z,168.00
2018-05-28T07:12:28.529Z,168.00
2018-05-28T07:13:03.900Z,174.00
2018-05-28T07:13:39.323Z,174.00
2018-05-28T07:14:14.745Z,174.00
2018-05-28T07:14:50.313Z,180.00
2018-05-28T07:15:25.337Z,185.00
2018-05-28T07:16:00.642Z,185.00
2018-05-28T07:16:36.072Z,196.00
2018-05-28T07:17:11.864Z,191.00
2018-05-28T07:17:48.906Z,191.00
2018-05-28T07:18:24.099Z,196.00
2018-05-28T07:19:00.045Z,202.00
2018-05-28T07:19:35.806Z,196.00
2018-05-28T07:20:11.033Z,196.00
2018-05-28T07:20:47.317Z,196.00
2018-05-28T07:21:22.926Z,191.00
2018-05-28T07:21:58.163Z,191.00
2018-05-28T07:22:33.404Z,191.00
2018-05-28T07:23:08.579Z,191.00
2018-05-28T07:23:43.924Z,191.00
2018-05-28T07:24:19.155Z,191.00
2018-05-28T07:24:56.284Z,191.00
2018-05-28T07:25:31.585Z,191.00
2018-05-28T07:26:06.942Z,191.00
2018-05-28T07:26:42.253Z,191.00
2018-05-28T07:27:17.602Z,196.00
2018-05-28T07:27:52.778Z,196.00
2018-05-28T07:28:27.926Z,196.00
2018-05-28T07:29:03.577Z,196.00
2018-05-28T07:29:39.209Z,196.00
2018-05-28T07:30:14.383Z,196.00
2018-05-28T07:30:51.808Z,196.00
2018-05-28T07:31:28.547Z,196.00
2018-05-28T07:32:03.829Z,196.00
2018-05-28T07:32:39.646Z,196.00
2018-05-28T07:33:15.090Z,196.00
2018-05-28T07:33:50.784Z,196.00
2018-05-28T07:34:26.199Z,191.00
2018-05-28T07:35:01.890Z,191.00
2018-05-28T07:35:37.503Z,191.00
2018-05-28T07:36:13.192Z,191.00
2018-05-28T07:36:48.515Z,191.00
2018-05-28T07:37:23.949Z,191.00
2018-05-28T07:37:59.396Z,185.00
2018-05-28T07:38:34.827Z,185.00
2018-05-28T07:39:10.277Z,191.00
2018-05-28T07:39:46.348Z,191.00
2018-05-28T07:40:21.771Z,185.00
2018-05-28T07:40:57.058Z,185.00
2018-05-28T07:41:32.202Z,185.00
2018-05-28T07:42:07.690Z,185.00
2018-05-28T07:42:43.463Z,185.00
2018-05-28T07:43:18.767Z,191.00
2018-05-28T07:43:54.399Z,191.00
2018-05-28T07:44:29.612Z,191.00
2018-05-28T07:45:04.913Z,191.00
2018-05-28T07:45:41.990Z,191.00
2018-05-28T07:46:17.310Z,191.00
2018-05-28T07:46:52.520Z,191.00
2018-05-28T07:47:27.852Z,191.00
2018-05-28T07:48:03.477Z,191.00
2018-05-28T07:48:39.047Z,191.00
2018-05-28T07:49:14.351Z,191.00
2018-05-28T07:49:49.864Z,196.00
2018-05-28T07:50:24.947Z,196.00
2018-05-28T07:51:00.082Z,196.00
2018-05-28T07:51:35.381Z,196.00
2018-05-28T07:52:10.807Z,196.00
2018-05-28T07:52:46.209Z,196.00
2018-05-28T07:53:21.655Z,202.00
2018-05-28T07:53:57.067Z,202.00
2018-05-28T07:54:32.611Z,202.00
2018-05-28T07:55:09.194Z,208.00
2018-05-28T07:55:44.513Z,202.00
2018-05-28T07:56:19.839Z,202.00
2018-05-28T07:56:55.187Z,202.00
2018-05-28T07:57:30.524Z,202.00
2018-05-28T07:58:05.973Z,208.00
2018-05-28T07:58:42.174Z,208.00
2018-05-28T07:59:17.489Z,213.00
2018-05-28T07:59:52.603Z,213.00